地図

経路データ

SID SEASON NUMBER BASIN SUBBASIN NAME ISO_TIME NATURE LAT LON WMO_WIND WMO_PRES WMO_AGENCY TRACK_TYPE DIST2LAND LANDFALL IFLAG USA_AGENCY USA_ATCF_ID USA_LAT USA_LON USA_RECORD USA_STATUS USA_WIND USA_PRES USA_SSHS USA_R34_NE USA_R34_SE USA_R34_SW USA_R34_NW USA_R50_NE USA_R50_SE USA_R50_SW USA_R50_NW USA_R64_NE USA_R64_SE USA_R64_SW USA_R64_NW USA_POCI USA_ROCI USA_RMW USA_EYE TOKYO_LAT TOKYO_LON TOKYO_GRADE TOKYO_WIND TOKYO_PRES TOKYO_R50_DIR TOKYO_R50_LONG TOKYO_R50_SHORT TOKYO_R30_DIR TOKYO_R30_LONG TOKYO_R30_SHORT TOKYO_LAND CMA_LAT CMA_LON CMA_CAT CMA_WIND CMA_PRES HKO_LAT HKO_LON HKO_CAT HKO_WIND HKO_PRES NEWDELHI_LAT NEWDELHI_LON NEWDELHI_GRADE NEWDELHI_WIND NEWDELHI_PRES NEWDELHI_CI NEWDELHI_DP NEWDELHI_POCI REUNION_LAT REUNION_LON REUNION_TYPE REUNION_WIND REUNION_PRES REUNION_TNUM REUNION_CI REUNION_RMW REUNION_R34_NE REUNION_R34_SE REUNION_R34_SW REUNION_R34_NW REUNION_R50_NE REUNION_R50_SE REUNION_R50_SW REUNION_R50_NW REUNION_R64_NE REUNION_R64_SE REUNION_R64_SW REUNION_R64_NW BOM_LAT BOM_LON BOM_TYPE BOM_WIND BOM_PRES BOM_TNUM BOM_CI BOM_RMW BOM_R34_NE BOM_R34_SE BOM_R34_SW BOM_R34_NW BOM_R50_NE BOM_R50_SE BOM_R50_SW BOM_R50_NW BOM_R64_NE BOM_R64_SE BOM_R64_SW BOM_R64_NW BOM_ROCI BOM_POCI BOM_EYE BOM_POS_METHOD BOM_PRES_METHOD NADI_LAT NADI_LON NADI_CAT NADI_WIND NADI_PRES WELLINGTON_LAT WELLINGTON_LON WELLINGTON_WIND WELLINGTON_PRES DS824_LAT DS824_LON DS824_STAGE DS824_WIND DS824_PRES TD9636_LAT TD9636_LON TD9636_STAGE TD9636_WIND TD9636_PRES TD9635_LAT TD9635_LON TD9635_WIND TD9635_PRES TD9635_ROCI NEUMANN_LAT NEUMANN_LON NEUMANN_CLASS NEUMANN_WIND NEUMANN_PRES MLC_LAT MLC_LON MLC_CLASS MLC_WIND MLC_PRES USA_GUST BOM_GUST BOM_GUST_PER REUNION_GUST REUNION_GUST_PER USA_SEAHGT USA_SEARAD_NE USA_SEARAD_SE USA_SEARAD_SW USA_SEARAD_NW STORM_SPEED STORM_DIR
1997360S12111 1998 115 SI WA SELWYN 1997-12-25 16:00:00 NR -11.9000 110.900 20 1006 bom main 401 399 ______O_______ -1 -11.9000 110.900 20 20 1006 1.00000 215 3 5 2 119
1997360S12111 1998 115 SI WA SELWYN 1997-12-25 18:00:00 TS -11.9269 110.957 main 399 397 O_____P_____O_ jtwc_sh SH091998 -12.0000 111.000 20 -1 -11.9039 110.964 20 20 1005 215 -11.9000 110.900 TC 15 1006 3 99
1997360S12111 1998 115 SI WA SELWYN 1997-12-25 21:00:00 TS -11.9364 111.123 main 397 395 P_____P_____P_ SH091998 -12.0175 111.248 22 -1 -11.9033 111.119 20 20 1004 215 -11.9049 111.005 TC 17 1005 4 94
1997360S12111 1998 115 SI WA SELWYN 1997-12-25 22:00:00 TS -11.9418 111.196 20 1004 bom main 395 394 P_____O_____P_ SH091998 -12.0346 111.331 23 -1 -11.9000 111.200 20 20 1004 1.00000 215 3 5 -11.9049 111.056 TC 18 1004 5 97
1997360S12111 1998 115 SI WA SELWYN 1997-12-26 00:00:00 TS -11.9643 111.370 main 404 403 O_____P_____O_ jtwc_sh SH091998 -12.1000 111.500 25 -1 -11.8929 111.409 20 21 1003 215 -11.9000 111.200 TC 20 1004 6 102
1997360S12111 1998 115 SI WA SELWYN 1997-12-26 03:00:00 TS -12.0430 111.665 main 403 403 P_____P_____P_ SH091998 -12.2850 111.745 25 -1 -11.9465 111.726 20 24 1002 215 -11.8976 111.523 TC 22 1003 6 109
1997360S12111 1998 115 SI WA SELWYN 1997-12-26 04:00:00 TS -12.0907 111.748 25 1002 bom main 414 414 P_____O_____P_ SH091998 -12.3583 111.812 25 -1 -12.0000 111.800 20 25 1002 1.50000 215 3 5 -11.9139 111.631 TC 23 1002 5 135
1997360S12111 1998 115 SI WA SELWYN 1997-12-26 06:00:00 TS -12.2286 111.855 main 426 426 O_____P_____O_ jtwc_sh SH091998 -12.5000 111.900 25 -1 -12.1859 111.864 20 25 1001 215 -12.0000 111.800 TC 25 1002 5 165
1997360S12111 1998 115 SI WA SELWYN 1997-12-26 09:00:00 TS -12.5050 111.865 main 459 459 P_____P_____P_ SH091998 -12.6425 111.895 27 -1 -12.5676 111.833 20 25 1000 215 -12.3049 111.867 TC 27 1001 6 182
1997360S12111 1998 115 SI WA SELWYN 1997-12-26 10:00:00 TS -12.6079 111.842 25 1000 bom main 470 470 P_____O_____P_ SH091998 -12.6896 111.868 28 -1 -12.7000 111.800 20 25 1000 2.00000 215 3 5 -12.4340 111.856 TC 28 1000 6 197
1997360S12111 1998 115 SI WA SELWYN 1997-12-26 12:00:00 TS -12.8129 111.778 main 492 492 O_____P_____O_ jtwc_sh SH091998 -12.8000 111.800 30 -1 -12.9388 111.735 20 28 998 215 -12.7000 111.800 TC 30 1000 7 199
1997360S12111 1998 115 SI WA SELWYN 1997-12-26 15:00:00 TS -13.1247 111.662 main 526 526 P_____P_____P_ SH091998 -13.0275 111.730 30 -1 -13.2890 111.569 20 33 995 215 -13.0575 111.688 TC 35 997 7 201
1997360S12111 1998 115 SI WA SELWYN 1997-12-26 16:00:00 TS -13.2297 111.609 35 995 bom main 537 537 P_____O_____P_ SH091998 -13.1145 111.696 30 -1 -13.4000 111.500 30 35 995 3.00000 215 3 5 -13.1745 111.632 TC 36 996 7 210
1997360S12111 1998 115 SI WA SELWYN 1997-12-26 18:00:00 TS -13.4378 111.481 main 560 560 O_____P_____O_ jtwc_sh SH091998 -13.3000 111.600 30 -1 -13.6134 111.344 30 36 993 223 -13.4000 111.500 TC 40 995 8 215
1997360S12111 1998 115 SI WA SELWYN 1997-12-26 21:00:00 TS -13.7386 111.240 main 596 596 P_____P_____P_ SH091998 -13.5925 111.380 32 -1 -13.9083 111.083 30 39 990 237 -13.7150 111.258 TC 42 992 8 219
1997360S12111 1998 115 SI WA SELWYN 1997-12-26 22:00:00 TS -13.8360 111.154 40 990 bom main 607 607 P_____O_____P_ SH091998 -13.6946 111.291 33 -1 -14.0000 111.000 30 40 990 3.00000 242 3 5 -13.8134 111.170 TC 43 991 8 220
1997360S12111 1998 115 SI WA SELWYN 1997-12-27 00:00:00 TS -14.0248 110.990 main 631 631 O_____P_____O_ jtwc_sh SH091998 -13.9000 111.100 35 0 -14.1745 110.870 30 43 988 250 -14.0000 111.000 TC 45 990 7 220
1997360S12111 1998 115 SI WA SELWYN 1997-12-27 03:00:00 TS -14.2972 110.761 main 668 668 P_____P_____P_ SH091998 -14.2150 110.800 40 0 -14.4192 110.675 30 48 985 264 -14.2574 110.807 TC 50 987 7 220
1997360S12111 1998 115 SI WA SELWYN 1997-12-27 04:00:00 TS -14.3848 110.680 50 985 bom main 680 680 P_____O_____P_ SH091998 -14.3158 110.698 41 0 -14.5000 110.600 30 50 985 3.50000 269 3 5 -14.3387 110.744 TC 51 986 7 223
1997360S12111 1998 115 SI WA SELWYN 1997-12-27 06:00:00 TS -14.5628 110.505 main 706 706 O_____P_____O_ jtwc_sh SH091998 -14.5000 110.500 45 0 -14.6884 110.416 30 53 981 269 -14.5000 110.600 TC 55 985 7 226
1997360S12111 1998 115 SI WA SELWYN 1997-12-27 09:00:00 TS -14.8115 110.223 main 735 735 P_____P_____P_ SH091998 -14.7149 110.250 55 0 -14.9395 110.105 30 58 976 269 -14.7800 110.315 TC 62 980 7 229
1997360S12111 1998 115 SI WA SELWYN 1997-12-27 10:00:00 TS -14.8808 110.127 60 975 bom main 748 748 P_____O_____P_ SH091998 -14.7775 110.169 58 0 -15.0000 110.000 30 60 975 4.00000 269 3 5 -14.8649 110.211 TC 65 978 7 239
1997360S12111 1998 115 SI WA SELWYN 1997-12-27 12:00:00 TS -14.9829 109.930 main 763 763 O_____P_____O_ jtwc_sh SH091998 -14.9000 110.000 65 1 -15.0486 109.789 30 63 971 269 -15.0000 110.000 TC 70 975 6 248
1997360S12111 1998 115 SI WA SELWYN 1997-12-27 15:00:00 TS -15.0806 109.624 main 781 781 P_____P_____P_ SH091998 -15.1075 109.700 62 0 -15.0767 109.488 30 68 966 269 -15.0575 109.685 TC 75 970 6 251
1997360S12111 1998 115 SI WA SELWYN 1997-12-27 16:00:00 TS -15.1131 109.527 70 965 bom main 783 783 P_____O_____P_ SH091998 -15.1746 109.598 61 0 -15.1000 109.400 40 70 965 4.50000 269 11 4 5 -15.0647 109.584 TC 76 968 6 245
1997360S12111 1998 115 SI WA SELWYN 1997-12-27 18:00:00 TS -15.2032 109.354 main 796 796 O_____P_____O_ jtwc_sh SH091998 -15.3000 109.400 60 0 -15.2095 109.262 40 71 963 277 -15.1000 109.400 TC 80 965 6 234
1997360S12111 1998 115 SI WA SELWYN 1997-12-27 21:00:00 TS -15.3867 109.138 main 824 824 P_____P_____P_ SH091998 -15.4574 109.142 62 0 -15.4254 109.073 40 74 960 291 -15.2774 109.200 TC 82 962 6 228
1997360S12111 1998 115 SI WA SELWYN 1997-12-27 22:00:00 TS -15.4519 109.066 75 960 bom main 835 835 P_____O_____P_ SH091998 -15.5054 109.061 63 0 -15.5000 109.000 40 75 960 4.50000 296 3 5 -15.3503 109.138 TC 83 961 6 230
1997360S12111 1998 115 SI WA SELWYN 1997-12-28 00:00:00 TS -15.5778 108.902 main 851 851 O_____P_____O_ jtwc_sh SH091998 -15.6000 108.900 65 1 -15.6334 108.805 40 75 960 296 -15.5000 109.000 TC 85 960 6 235
1997360S12111 1998 115 SI WA SELWYN 1997-12-28 03:00:00 TS -15.7586 108.617 main 881 881 P_____P_____P_ SH091998 -15.7424 108.657 65 1 -15.8334 108.494 40 75 960 296 -15.7001 108.700 TC 85 960 7 236
1997360S12111 1998 115 SI WA SELWYN 1997-12-28 04:00:00 TS -15.8196 108.523 75 960 bom main 884 884 P_____O_____P_ SH091998 -15.7920 108.574 65 1 -15.9000 108.400 40 75 960 4.50000 296 11 4 5 -15.7667 108.595 TC 85 960 6 232
1997360S12111 1998 115 SI WA SELWYN 1997-12-28 06:00:00 TS -15.9498 108.356 main 892 890 O_____P_____O_ jtwc_sh SH091998 -15.9000 108.400 65 1 -16.0495 108.267 40 75 960 296 -15.9000 108.400 TC 85 960 6 229
1997360S12111 1998 115 SI WA SELWYN 1997-12-28 09:00:00 TS -16.1526 108.129 main 889 889 P_____P_____P_ SH091998 -16.0850 108.100 65 1 -16.2504 108.079 40 75 960 296 -16.1224 108.207 TC 85 960 6 228
1997360S12111 1998 115 SI WA SELWYN 1997-12-28 10:00:00 TS -16.2145 108.048 75 960 bom main 896 888 P_____O_____P_ SH091998 -16.1533 107.998 65 1 -16.3000 108.000 40 75 960 4.50000 296 12 4 5 -16.1902 108.146 TC 85 960 6 238
1997360S12111 1998 115 SI WA SELWYN 1997-12-28 12:00:00 TS -16.3100 107.865 main 895 895 O_____P_____O_ jtwc_sh SH091998 -16.3000 107.800 65 1 -16.3299 107.796 40 73 961 296 -16.3000 108.000 TC 85 960 6 247
1997360S12111 1998 115 SI WA SELWYN 1997-12-28 15:00:00 TS -16.4183 107.558 main 911 911 P_____P_____P_ SH091998 -16.5573 107.565 65 1 -16.3626 107.430 40 70 964 296 -16.3350 107.680 TC 82 962 6 249
1997360S12111 1998 115 SI WA SELWYN 1997-12-28 16:00:00 TS -16.4623 107.447 70 965 bom main 919 919 P_____O_____P_ SH091998 -16.6436 107.485 65 1 -16.4000 107.300 40 70 965 4.50000 296 3 5 -16.3434 107.557 TC 81 963 7 242
1997360S12111 1998 115 SI WA SELWYN 1997-12-28 18:00:00 TS -16.5923 107.214 main 927 927 O_____P_____O_ jtwc_sh SH091998 -16.8000 107.300 65 1 -16.5768 107.041 40 71 965 296 -16.4000 107.300 TC 80 965 9 237
1997360S12111 1998 115 SI WA SELWYN 1997-12-28 21:00:00 TS -16.8513 106.825 main 939 939 P_____P_____P_ SH091998 -16.9650 106.930 65 1 -16.9040 106.636 40 74 965 296 -16.6850 106.908 TC 80 965 9 236
1997360S12111 1998 115 SI WA SELWYN 1997-12-28 22:00:00 TS -16.9358 106.688 75 965 bom main 947 947 P_____O_____P_ SH091998 -17.0108 106.791 65 1 -17.0000 106.500 40 75 965 4.50000 296 3 5 -16.7965 106.772 TC 80 965 9 240
1997360S12111 1998 115 SI WA SELWYN 1997-12-29 00:00:00 TS -17.0818 106.413 main 960 960 O_____P_____O_ jtwc_sh SH091998 -17.1000 106.500 65 1 -17.1453 106.239 40 71 966 296 -17.0000 106.500 TC 80 965 9 244
1997360S12111 1998 115 SI WA SELWYN 1997-12-29 03:00:00 TS -17.2493 106.001 main 989 983 P_____P_____P_ SH091998 -17.2649 106.058 62 0 -17.2806 105.839 40 66 969 296 -17.2024 106.107 TC 77 967 9 249
1997360S12111 1998 115 SI WA SELWYN 1997-12-29 04:00:00 TS -17.2878 105.860 65 970 bom main 991 991 P_____O_____P_ SH091998 -17.3158 105.905 61 0 -17.3000 105.700 40 65 970 4.50000 296 3 5 -17.2478 105.975 TC 76 968 8 259
1997360S12111 1998 115 SI WA SELWYN 1997-12-29 06:00:00 TS -17.3328 105.567 main 1018 1018 O_____P_____O_ jtwc_sh SH091998 -17.4000 105.600 60 0 -17.2983 105.402 40 65 970 296 -17.3000 105.700 TC 75 970 9 267
1997360S12111 1998 115 SI WA SELWYN 1997-12-29 09:00:00 TS -17.3290 105.113 main 1064 1064 P_____P_____P_ SH091998 -17.4799 105.142 55 0 -17.2272 104.947 40 65 970 296 -17.2800 105.250 TC 75 970 9 272
1997360S12111 1998 115 SI WA SELWYN 1997-12-29 10:00:00 TS -17.3161 104.963 65 970 bom main 1073 1073 P_____O_____P_ SH091998 -17.4933 104.992 53 0 -17.2000 104.800 40 65 970 4.50000 296 3 5 -17.2551 105.097 TC 75 970 8 276
1997360S12111 1998 115 SI WA SELWYN 1997-12-29 12:00:00 TS -17.2870 104.675 main 1101 1101 O_____P_____O_ jtwc_sh SH091998 -17.5000 104.700 50 0 -17.1611 104.525 40 63 971 296 -17.2000 104.800 TC 75 970 8 276
1997360S12111 1998 115 SI WA SELWYN 1997-12-29 15:00:00 TS -17.2444 104.274 main 1120 1120 P_____P_____P_ SH091998 -17.4798 104.300 47 0 -17.1109 104.131 40 60 974 296 -17.1424 104.392 TC 72 972 8 277
1997360S12111 1998 115 SI WA SELWYN 1997-12-29 16:00:00 TS -17.2284 104.143 60 975 bom main 1125 1125 P_____O_____P_ SH091998 -17.4598 104.169 46 0 -17.1000 104.000 30 60 975 4.00000 296 3 5 -17.1253 104.261 TC 71 973 8 277
1997360S12111 1998 115 SI WA SELWYN 1997-12-29 18:00:00 TS -17.1991 103.881 main 1130 1130 O_____P_____O_ jtwc_sh SH091998 -17.4000 103.900 45 0 -17.0974 103.744 30 58 976 296 -17.1000 104.000 TC 70 975 8 277
1997360S12111 1998 115 SI WA SELWYN 1997-12-29 21:00:00 TS -17.1534 103.472 main 1141 1133 P_____P_____P_ SH091998 -17.2574 103.457 45 0 -17.1030 103.345 30 55 979 296 -17.0998 103.615 TC 65 977 8 277
1997360S12111 1998 115 SI WA SELWYN 1997-12-29 22:00:00 TS -17.1351 103.329 55 980 bom main 1137 1137 P_____O_____P_ SH091998 -17.2029 103.305 45 0 -17.1000 103.200 30 55 980 4.00000 296 3 5 -17.1023 103.483 TC 63 978 9 278
1997360S12111 1998 115 SI WA SELWYN 1997-12-30 00:00:00 TS -17.0952 103.024 main 1147 1147 O_____P_____O_ jtwc_sh SH091998 -17.1000 103.000 45 0 -17.0855 102.872 30 53 981 296 -17.1000 103.200 TC 60 980 9 278
1997360S12111 1998 115 SI WA SELWYN 1997-12-30 03:00:00 TS -17.0344 102.532 main 1155 1155 P_____P_____P_ SH091998 -17.0000 102.535 45 0 -17.0307 102.361 30 50 984 296 -17.0726 102.700 TC 57 982 9 278
1997360S12111 1998 115 SI WA SELWYN 1997-12-30 04:00:00 TS -17.0079 102.371 50 985 bom main 1159 1159 P_____O_____P_ SH091998 -16.9691 102.384 45 0 -17.0000 102.200 30 50 985 3.50000 296 3 5 -17.0546 102.528 TC 56 983 9 283
1997360S12111 1998 115 SI WA SELWYN 1997-12-30 06:00:00 TS -16.9367 102.071 main 1161 1161 O_____P_____O_ jtwc_sh SH091998 -16.9000 102.100 45 0 -16.9102 101.912 30 46 986 296 -17.0000 102.200 TC 55 985 8 289
1997360S12111 1998 115 SI WA SELWYN 1997-12-30 09:00:00 TS -16.7831 101.678 main 1169 1164 P_____P_____P_ SH091998 -16.7424 101.735 42 0 -16.7495 101.522 30 41 989 296 -16.8574 101.777 TC 50 987 8 293
1997360S12111 1998 115 SI WA SELWYN 1997-12-30 10:00:00 TS -16.7308 101.557 40 990 bom main 1164 1164 P_____O_____P_ SH091998 -16.6895 101.622 41 0 -16.7000 101.400 30 40 990 3.00000 296 3 5 -16.8029 101.648 TC 48 988 7 293
1997360S12111 1998 115 SI WA SELWYN 1997-12-30 12:00:00 TS -16.6400 101.321 main 1169 1169 O_____P_____O_ jtwc_sh SH091998 -16.6000 101.400 40 0 -16.6199 101.164 30 38 991 296 -16.7000 101.400 TC 45 990 7 288
1997360S12111 1998 115 SI WA SELWYN 1997-12-30 15:00:00 TS -16.5482 100.973 main 1176 1176 P_____P_____P_ SH091998 -16.5349 101.050 37 0 -16.5249 100.820 30 35 994 296 -16.5849 101.050 TC 42 992 7 284
1997360S12111 1998 115 SI WA SELWYN 1997-12-30 16:00:00 TS -16.5252 100.856 35 995 bom main 1181 1181 P_____O_____P_ SH091998 -16.5224 100.933 36 0 -16.5000 100.700 30 35 995 3.00000 296 3 5 -16.5532 100.936 TC 41 993 7 280
1997360S12111 1998 115 SI WA SELWYN 1997-12-30 18:00:00 TS -16.4844 100.614 main 1196 1195 O_____P_____O_ jtwc_sh SH091998 -16.5000 100.700 35 0 -16.4533 100.441 30 33 995 296 -16.5000 100.700 TC 40 995 7 279
1997360S12111 1998 115 SI WA SELWYN 1997-12-30 21:00:00 TS -16.4311 100.234 main 1204 1204 P_____P_____P_ SH091998 -16.4499 100.358 35 0 -16.4083 100.036 30 30 997 296 -16.4350 100.308 TC 37 996 7 278
1997360S12111 1998 115 SI WA SELWYN 1997-12-30 22:00:00 TS -16.4177 100.104 30 998 bom main 1209 1209 P_____O_____P_ SH091998 -16.4332 100.241 35 0 -16.4000 99.9000 20 30 998 2.50000 296 3 5 -16.4200 100.172 TC 36 997 8 275
1997360S12111 1998 115 SI WA SELWYN 1997-12-31 00:00:00 TS -16.3955 99.8445 main 1225 1225 O_____P_____O_ jtwc_sh SH091998 -16.4000 100.000 35 0 -16.3866 99.6333 20 30 998 296 -16.4000 99.9000 TC 35 998 8 274
1997360S12111 1998 115 SI WA SELWYN 1997-12-31 03:00:00 TS -16.3730 99.4519 main 1241 1241 P_____P_____P_ SH091998 -16.3424 99.6225 35 0 -16.3916 99.2333 20 30 998 296 -16.3849 99.5000 TC 35 998 8 273
1997360S12111 1998 115 SI WA SELWYN 1997-12-31 04:00:00 TS -16.3706 99.3182 30 998 bom main 1252 1252 P_____O_____P_ SH091998 -16.3253 99.4879 35 0 -16.4000 99.1000 20 30 998 2.50000 296 3 5 -16.3866 99.3667 TC 35 998 8 269
1997360S12111 1998 115 SI WA SELWYN 1997-12-31 06:00:00 TS -16.3769 99.0481 main 1269 1269 O_____P_____O_ jtwc_sh SH091998 -16.3000 99.2000 35 0 -16.4307 98.8443 20 28 998 296 -16.4000 99.1000 TC 35 998 8 267
1997360S12111 1998 115 SI WA SELWYN 1997-12-31 09:00:00 TS -16.4095 98.6250 main 1293 1293 P_____P_____P_ SH091998 -16.2925 98.7150 35 0 -16.4863 98.4448 20 25 999 296 -16.4498 98.7151 TC 32 999 8 265
1997360S12111 1998 115 SI WA SELWYN 1997-12-31 10:00:00 TS -16.4212 98.4756 25 1000 bom main 1299 1299 P_____O_____P_ SH091998 -16.2945 98.5442 35 0 -16.5000 98.3000 20 25 1000 2.00000 296 3 5 -16.4690 98.5825 TC 31 999 9 267
1997360S12111 1998 115 SI WA SELWYN 1997-12-31 12:00:00 TS -16.4342 98.1608 main 1317 1317 O_____P_____O_ jtwc_sh SH091998 -16.3000 98.2000 35 0 -16.5025 97.9824 20 25 1000 296 -16.5000 98.3000 TC 30 1000 9 269
1997360S12111 1998 115 SI WA SELWYN 1997-12-31 15:00:00 TS -16.4298 97.6622 main 1349 1349 P_____P_____P_ SH091998 -16.2924 97.6999 35 0 -16.4969 97.4719 20 25 1000 296 -16.5000 97.8149 TC 30 1000 10 270
1997360S12111 1998 115 SI WA SELWYN 1997-12-31 16:00:00 TS -16.4298 97.4925 25 1000 bom main 1363 1363 P_____O_____P_ SH091998 -16.2920 97.5333 35 0 -16.5000 97.3000 20 25 1000 2.00000 296 3 5 -16.4975 97.6441 TC 30 1000 10 269
1997360S12111 1998 115 SI WA SELWYN 1997-12-31 18:00:00 TS -16.4382 97.1555 main 1383 1383 O_____P_____O_ jtwc_sh SH091998 -16.3000 97.2000 35 0 -16.5145 96.9666 20 25 1000 296 -16.5000 97.3000 TC 30 1000 10 267
1997360S12111 1998 115 SI WA SELWYN 1997-12-31 21:00:00 TS -16.4772 96.6555 main 1426 1426 P_____P_____P_ SH091998 -16.3349 96.7000 32 -1 -16.5692 96.4666 20 25 1000 296 -16.5274 96.7999 TC 30 1000 10 265
1997360S12111 1998 115 SI WA SELWYN 1997-12-31 22:00:00 TS -16.4995 96.4889 25 1000 bom main 1440 1440 P_____O_____P_ SH091998 -16.3532 96.5333 31 -1 -16.6000 96.3000 20 25 1000 2.00000 296 3 5 -16.5453 96.6333 TC 30 1000 10 260
1997360S12111 1998 115 SI WA SELWYN 1998-01-01 00:00:00 TS -16.5614 96.1538 main 1470 1470 O_____P_____O_ jtwc_sh SH091998 -16.4000 96.2000 30 -1 -16.6841 95.9613 20 26 999 296 -16.6000 96.3000 TC 30 1000 10 257
1997360S12111 1998 115 SI WA SELWYN 1998-01-01 03:00:00 TS -16.6907 95.6487 main 1523 1523 P_____P_____P_ SH091998 -16.4924 95.6925 27 -1 -16.8447 95.4610 20 29 998 296 -16.7349 95.7926 TC 32 999 10 255
1997360S12111 1998 115 SI WA SELWYN 1998-01-01 04:00:00 TS -16.7390 95.4836 30 998 bom main 1530 1530 P_____O_____P_ SH091998 -16.5278 95.5254 26 -1 -16.9000 95.3000 20 30 998 2.50000 296 3 5 -16.7891 95.6255 TC 33 998 10 253
1997360S12111 1998 115 SI WA SELWYN 1998-01-01 06:00:00 TS -16.8315 95.1640 main 1561 1561 O_____P_____O_ jtwc_sh SH091998 -16.6000 95.2000 25 -1 -16.9944 94.9920 20 30 998 296 -16.9000 95.3000 TC 35 998 9 254
1997360S12111 1998 115 SI WA SELWYN 1998-01-01 09:00:00 TS -16.9546 94.7131 main 1614 1614 P_____P_____P_ SH091998 -16.6773 94.7498 25 -1 -17.1442 94.5473 20 30 998 296 -17.0423 94.8424 TC 35 998 9 254
1997360S12111 1998 115 SI WA SELWYN 1998-01-01 10:00:00 TS -17.0005 94.5656 30 998 bom main 1622 1622 P_____O_____P_ SH091998 -16.7095 94.6022 25 -1 -17.2000 94.4000 20 30 998 2.50000 296 3 5 -17.0920 94.6944 TC 35 998 9 250
1997360S12111 1998 115 SI WA SELWYN 1998-01-01 12:00:00 TS -17.1084 94.2739 main 1653 1653 O_____P_____O_ jtwc_sh SH091998 -16.8000 94.3000 25 -1 -17.3252 94.1216 20 28 998 296 -17.2000 94.4000 TC 35 998 9 245
1997360S12111 1998 115 SI WA SELWYN 1998-01-01 15:00:00 TS -17.3216 93.8301 main 1707 1707 P_____P_____P_ SH091998 -17.0422 93.8376 27 -1 -17.5305 93.6727 20 25 999 296 -17.3922 93.9799 TC 32 999 10 243
1997360S12111 1998 115 SI WA SELWYN 1998-01-01 16:00:00 TS -17.3978 93.6673 25 1000 bom main 1723 1723 P_____O_____P_ SH091998 -17.1325 93.6704 28 -1 -17.6000 93.5000 20 25 1000 2.00000 296 3 5 -17.4609 93.8315 TC 31 999 11 246
1997360S12111 1998 115 SI WA SELWYN 1998-01-01 18:00:00 TS -17.5463 93.3012 main 1762 1762 O_____P_____O_ jtwc_sh SH091998 -17.3000 93.3000 30 -1 -17.7388 93.1037 20 25 1000 296 -17.6000 93.5000 TC 30 1000 12 251
1997360S12111 1998 115 SI WA SELWYN 1998-01-01 21:00:00 TS -17.7272 92.6450 main 1832 1832 P_____P_____P_ SH091998 -17.4352 92.6145 27 -1 -17.9390 92.4329 20 25 1000 296 -17.8075 92.8875 TC 30 1000 13 254
1997360S12111 1998 115 SI WA SELWYN 1998-01-01 22:00:00 TS -17.7846 92.4117 25 1000 bom main 1856 1856 P_____O_____P_ SH091998 -17.4794 92.3722 26 -1 -18.0000 92.2000 20 25 1000 2.00000 296 3 5 -17.8745 92.6630 TC 30 1000 14 256
1997360S12111 1998 115 SI WA SELWYN 1998-01-02 00:00:00 TS -17.8990 91.9434 main 1904 1904 O_____P_____O_ jtwc_sh SH091998 -17.6000 91.9000 25 -1 -18.0970 91.7301 20 25 1000 296 -18.0000 92.2000 TC 30 1000 14 254
1997360S12111 1998 115 SI WA SELWYN 1998-01-02 03:00:00 TS -18.1037 91.2598 main 1967 1967 P_____P_____P_ SH091998 -17.9274 91.2627 25 -1 -18.2412 91.0244 20 25 1000 296 -18.1425 91.4922 TC 30 1000 14 252
1997360S12111 1998 115 SI WA SELWYN 1998-01-02 04:00:00 TS -18.1808 91.0406 25 1000 bom main 1999 1999 P_____O_____P_ SH091998 -18.0527 91.0656 25 -1 -18.3000 90.8000 20 25 1000 2.00000 296 3 5 -18.1896 91.2560 TC 30 1000 13 248
1997360S12111 1998 115 SI WA SELWYN 1998-01-02 06:00:00 TS -18.3503 90.6173 main 2046 2046 O_____P_____O_ jtwc_sh SH091998 -18.3000 90.7000 25 -1 -18.4508 90.3517 20 25 1000 296 -18.3000 90.8000 TC 30 1000 13 245
1997360S12111 1998 115 SI WA SELWYN 1998-01-02 09:00:00 TS -18.6204 90.0402 main 2110 2110 P_____P_____P_ SH091998 -18.6148 90.2198 25 -1 -18.7114 89.7606 20 25 1000 296 -18.5350 90.1402 TC 30 1000 12 243
1997360S12111 1998 115 SI MM SELWYN 1998-01-02 10:00:00 TS -18.7119 89.8725 main 2125 2125 P_____O_____P_ SH091998 -18.7131 90.0756 25 -1 -18.8000 89.6000 20 25 1000 2.00000 296 3 5 -18.6225 89.9419 TC 30 1000 10 238
1997360S12111 1998 115 SI MM SELWYN 1998-01-02 12:00:00 TS -18.8906 89.5859 main 2164 2164 O_____P_____O_ jtwc_sh SH091998 -18.9000 89.8000 25 -1 -18.9717 89.3578 20 25 1000 296 -18.8000 89.6000 TC 30 1000 9 234
1997360S12111 1998 115 SI MM SELWYN 1998-01-02 15:00:00 TS -19.1446 89.2365 main 2210 2210 P_____P_____P_ SH091998 -19.1577 89.3978 25 -1 -19.2222 89.0898 20 25 1000 296 -19.0571 89.2622 TC 30 1000 8 233
1997360S12111 1998 115 SI MM SELWYN 1998-01-02 16:00:00 TS -19.2243 89.1230 main 2225 2225 P_____O_____P_ SH091998 -19.2395 89.2649 25 -1 -19.3000 89.0000 20 25 1000 2.00000 296 3 5 -19.1409 89.1751 TC 30 1000 7 233
1997360S12111 1998 115 SI MM SELWYN 1998-01-02 18:00:00 TS -19.3663 88.9218 main 2256 2256 O_____P_____O_ jtwc_sh SH091998 -19.4000 89.0000 25 -1 -19.4435 88.7916 20 25 1000 296 -19.3000 89.0000 TC 30 1000 7 237
1997360S12111 1998 115 SI MM SELWYN 1998-01-02 21:00:00 TS -19.5613 88.5762 main 2293 2293 ______P_____P_ SH091998 -1 -19.6379 88.4276 20 25 1000 296 -19.5103 88.6753 TC 30 1000 7 240
1997360S12111 1998 115 SI MM SELWYN 1998-01-02 22:00:00 TS -19.6166 88.4689 main 2300 2300 ______O_____P_ SH091998 -1 -19.7000 88.3000 20 25 1000 2.00000 296 3 5 -19.5749 88.5533 TC 30 1000 6 242
1997360S12111 1998 115 SI MM SELWYN 1998-01-03 00:00:00 TS -19.7000 88.3000 main 2322 ____________O_ -1 20 -19.7000 88.3000 TC 30 1000 5 242

IBTrACS Databaseについて

本データベースは、米国NOAAが公開する1842年以降の世界の熱帯低気圧のベストトラックデータアーカイブInternational Best Track Archive for Climate Stewardship (IBTrACS)を、ウェブで閲覧しやすい形式に変換したものです。

最終更新日:2021-12-06